Airfield :
LOGIN :

Register | Disclaimer

   EN    FR    IT 

 










Legend :    VFR   Marginal VFR   IFR   Intensive IFR   Very Intensive IFR
Visi :
Ceiling :
>= 8 km
>= 3000ft
5 to 8 km
1000 to 3000 ft
1500m to 5 km
500 to 1000 ft
800 to 1500m
200 to 500 ft
< 800m
< 200 ft
Symbols :   Thunderstorms  Fog  Heavy snow  Heavy precipitations  Wind > 20 kt
SIGMETs :     Misc.  Thunderstorms  Icing  Turbulence  Mountain Waves  Volcanic Ashes







- Airport Elevation : 1299 ft


EDTY - Adolf Würth

CURRENT METAR :
  • 171850Z 26015G26KT 9999 -SHRA BKN014 OVC020 03/02 Q1008

EXPIRED METARs :
  • 171820Z 27012KT 9999 -SHRA FEW011 BKN013 OVC022 03/03 Q1008
  • 171750Z 25017KT 9999 -SHRA FEW014 BKN016 BKN025 03/02 Q1007
  • 171720Z 25018KT 9999 FEW029 BKN037 BKN050 05/00 Q1006
  • 171650Z 25019G30KT 9999 FEW026 SCT041 OVC054 05/00 Q1006

TAF TAF EDTY
Valid from the 17 at 18:00 until the 18 at 03:00 UTC


171700Z 1718/1803 25015G25KT 9999 BKN020
TEMPO 1720/1802 2000 SHSN BKN010TCU
No reported NOTAMs for that airfield.



MET'MAP, your aeronautical weather chart ! - Copyright ORBIFLY December 2007 - Disclaimer

ORBIFLY MET'MAP TEAM :

Programming & Development : Alexandra Zaïnal
Concept & Development : Baudouin d'Aumeries
Co-Development & Prog : Marc-Olivier Méhu
Technical & hardware support : Manuel Goepfert

Contact : metmap@orbifly.com




SOURCES & CREDITS :

   NOAA